Airfield :
LOGIN :

Register | Disclaimer

   EN    FR    IT 

 










Legend :    VFR   Marginal VFR   IFR   Intensive IFR   Very Intensive IFR
Visi :
Ceiling :
>= 8 km
>= 3000ft
5 to 8 km
1000 to 3000 ft
1500m to 5 km
500 to 1000 ft
800 to 1500m
200 to 500 ft
< 800m
< 200 ft
Symbols :   Thunderstorms  Fog  Heavy snow  Heavy precipitations  Wind > 20 kt
SIGMETs :     Misc.  Thunderstorms  Icing  Turbulence  Mountain Waves  Volcanic Ashes






- Airport Elevation : 19 ft
- IATA code : LCY


EGLC - London City

CURRENT METAR :
  • 151420Z AUTO 08010KT 9999 NCD 20/15 Q1007

EXPIRED METARs :
  • 151350Z AUTO 08010KT 9999 NCD 20/15 Q1007
  • 151320Z AUTO 08009KT 9999 NCD 20/15 Q1007
  • 151250Z AUTO 09010KT 9999 NCD 20/14 Q1007
  • 151220Z AUTO 09010KT 9999 -RA FEW037 20/15 Q1008
  • 151150Z AUTO 08009KT 9999 -RA NCD 20/14 Q1008
  • 151120Z AUTO 08009KT 9999 NCD 20/14 Q1008
  • 151050Z AUTO 08011KT 9999 NCD 20/13 Q1009
  • 151020Z AUTO 09011KT 9999 NCD 20/12 Q1009
  • 150950Z AUTO 09009KT 9999 NCD 19/11 Q1009

TAF TAF EGLC
Valid from the 15 at 15:00 until the 15 at 21:00 UTC


151401Z 1515/1521 14007KT 9999 FEW035
TEMPO 1515/1521 6000 RA SHRA
PROB30
TEMPO 1515/1516 4000 +SHRA
PROB40
TEMPO 1516/1521 3000 +SHRA BKN008 BKN015CB
ATIS : +44 20 7646 0224



MET'MAP, your aeronautical weather chart ! - Copyright ORBIFLY December 2007 - Disclaimer

ORBIFLY MET'MAP TEAM :

Programming & Development : Alexandra Zaïnal
Original concept : Baudouin d'Aumeries
Technical & hardware support : Manuel Goepfert
Assistance : Marc-Olivier Méhu




SOURCES & CREDITS :

   NOAA